createdAt,value
2023-05-10T00:01:53.952Z,15.78
2023-05-10T00:04:23.385Z,15.76
2023-05-10T00:06:51.386Z,15.77
2023-05-10T00:09:20.480Z,15.79
2023-05-10T00:11:48.419Z,15.73
2023-05-10T00:14:16.910Z,15.54
2023-05-10T00:16:44.839Z,15.59
2023-05-10T00:19:13.248Z,15.65
2023-05-10T00:21:41.181Z,15.68
2023-05-10T00:24:09.653Z,15.67
2023-05-10T00:26:37.827Z,15.62
2023-05-10T00:29:06.274Z,15.63
2023-05-10T00:31:34.140Z,15.73
2023-05-10T00:34:02.776Z,15.72
2023-05-10T00:36:32.530Z,15.68
2023-05-10T00:39:01.194Z,15.62
2023-05-10T00:41:29.372Z,15.65
2023-05-10T00:43:58.941Z,15.59
2023-05-10T00:46:27.374Z,15.55
2023-05-10T00:48:55.911Z,15.63
2023-05-10T00:51:25.348Z,15.52
2023-05-10T00:53:53.784Z,15.54
2023-05-10T00:56:24.330Z,15.58
2023-05-10T00:58:53.026Z,15.33
2023-05-10T01:01:23.822Z,15.32
2023-05-10T01:03:53.959Z,15.23
2023-05-10T01:06:22.126Z,15.18
2023-05-10T01:08:50.653Z,15.29
2023-05-10T01:11:20.245Z,15.28
2023-05-10T01:13:56.379Z,15.18
2023-05-10T01:16:26.757Z,15.21
2023-05-10T01:18:55.216Z,15.28
2023-05-10T01:21:34.862Z,15.29
2023-05-10T01:24:15.071Z,15.34
2023-05-10T01:26:58.853Z,15.29
2023-05-10T01:29:46.875Z,15.27
2023-05-10T01:32:26.710Z,15.26
2023-05-10T01:35:01.135Z,15.14
2023-05-10T01:37:41.597Z,15.20
2023-05-10T01:40:20.012Z,15.23
2023-05-10T01:42:54.753Z,15.23
2023-05-10T01:45:32.170Z,15.13
2023-05-10T01:48:12.698Z,14.90
2023-05-10T01:50:45.021Z,14.86
2023-05-10T01:53:19.184Z,14.94
2023-05-10T01:55:55.303Z,15.01
2023-05-10T01:58:35.189Z,15.04
2023-05-10T02:01:06.238Z,15.09
2023-05-10T02:03:37.956Z,15.09
2023-05-10T02:06:08.396Z,15.15
2023-05-10T02:08:38.588Z,15.13
2023-05-10T02:11:09.423Z,15.24
2023-05-10T02:13:40.697Z,15.26
2023-05-10T02:16:09.729Z,15.26
2023-05-10T02:18:38.089Z,15.23
2023-05-10T02:21:11.967Z,15.14
2023-05-10T02:23:41.889Z,15.28
2023-05-10T02:26:11.844Z,15.20
2023-05-10T02:28:41.740Z,15.15
2023-05-10T02:31:11.847Z,15.23
2023-05-10T02:33:45.761Z,15.32
2023-05-10T02:36:15.343Z,15.37
2023-05-10T02:38:44.730Z,15.58
2023-05-10T02:41:14.478Z,15.84
2023-05-10T02:43:44.301Z,15.96
2023-05-10T02:46:12.998Z,16.16
2023-05-10T02:48:41.429Z,16.48
2023-05-10T02:51:11.920Z,16.61
2023-05-10T02:53:44.180Z,16.69
2023-05-10T02:56:35.755Z,16.80
2023-05-10T02:59:03.722Z,16.83
2023-05-10T03:01:32.224Z,16.86
2023-05-10T03:04:00.077Z,16.93
2023-05-10T03:06:29.933Z,16.95
2023-05-10T03:08:58.780Z,17.08
2023-05-10T03:11:46.727Z,17.39
2023-05-10T03:14:36.090Z,17.44
2023-05-10T03:17:17.183Z,17.40
2023-05-10T03:20:13.105Z,17.62
2023-05-10T03:22:54.613Z,17.62
2023-05-10T03:25:24.291Z,17.73
2023-05-10T03:27:55.859Z,17.74
2023-05-10T03:30:25.756Z,17.90
2023-05-10T03:32:54.251Z,18.09
2023-05-10T03:35:22.311Z,18.13
2023-05-10T03:37:51.354Z,18.19
2023-05-10T03:40:19.474Z,18.24
2023-05-10T03:42:48.583Z,18.31
2023-05-10T03:45:16.648Z,18.34
2023-05-10T03:47:46.054Z,18.32
2023-05-10T03:50:14.413Z,18.26
2023-05-10T03:52:43.537Z,18.33
2023-05-10T03:55:12.228Z,18.33
2023-05-10T03:57:40.748Z,18.29
2023-05-10T04:00:09.994Z,18.15
2023-05-10T04:02:45.400Z,18.08
2023-05-10T04:05:19.044Z,17.95
2023-05-10T04:07:48.418Z,17.79
2023-05-10T04:10:17.682Z,17.82
2023-05-10T04:12:48.055Z,18.18
2023-05-10T04:15:16.211Z,18.18
2023-05-10T04:17:47.064Z,18.41
2023-05-10T04:20:16.021Z,18.47
2023-05-10T04:22:45.336Z,18.81
2023-05-10T04:25:13.262Z,19.02
2023-05-10T04:27:41.710Z,19.05
2023-05-10T04:30:11.290Z,19.21
2023-05-10T04:32:39.583Z,19.20
2023-05-10T04:35:07.742Z,19.04
2023-05-10T04:37:36.425Z,18.88
2023-05-10T04:40:06.191Z,18.58
2023-05-10T04:42:34.431Z,18.61
2023-05-10T04:45:02.511Z,18.77
2023-05-10T04:47:32.457Z,18.74
2023-05-10T04:50:02.931Z,18.86
2023-05-10T04:52:32.562Z,19.01
2023-05-10T04:55:00.494Z,19.33
2023-05-10T04:57:28.994Z,19.38
2023-05-10T04:59:56.839Z,19.43
2023-05-10T05:02:25.546Z,19.05
2023-05-10T05:04:53.763Z,19.14
2023-05-10T05:07:23.661Z,19.04
2023-05-10T05:09:52.031Z,19.13
2023-05-10T05:12:20.762Z,19.03
2023-05-10T05:14:48.729Z,18.93
2023-05-10T05:17:16.965Z,19.03
2023-05-10T05:19:45.061Z,19.05
2023-05-10T05:22:13.366Z,19.08
2023-05-10T05:24:41.222Z,19.16
2023-05-10T05:27:09.696Z,19.23
2023-05-10T05:29:37.642Z,19.32
2023-05-10T05:32:07.234Z,19.32
2023-05-10T05:34:35.623Z,19.21
2023-05-10T05:37:03.948Z,19.27
2023-05-10T05:39:32.226Z,19.39
2023-05-10T05:42:00.828Z,19.17
2023-05-10T05:44:30.042Z,19.06
2023-05-10T05:46:58.551Z,19.21
2023-05-10T05:49:26.538Z,19.19
2023-05-10T05:51:54.841Z,19.26
2023-05-10T05:54:22.802Z,19.45
2023-05-10T05:56:51.027Z,19.39
2023-05-10T05:59:18.795Z,19.45
2023-05-10T06:01:47.165Z,19.38
2023-05-10T06:04:15.095Z,19.40
2023-05-10T06:06:43.609Z,19.31
2023-05-10T06:09:11.883Z,19.21
2023-05-10T06:11:40.310Z,19.26
2023-05-10T06:14:09.111Z,19.21
2023-05-10T06:16:37.491Z,19.31
2023-05-10T06:19:05.572Z,19.29
2023-05-10T06:21:33.942Z,19.32
2023-05-10T06:24:01.870Z,19.55
2023-05-10T06:26:30.267Z,19.49
2023-05-10T06:28:58.280Z,19.52
2023-05-10T06:31:26.551Z,19.58
2023-05-10T06:33:56.657Z,19.72
2023-05-10T06:36:27.580Z,19.89
2023-05-10T06:38:56.406Z,20.00
2023-05-10T06:41:25.175Z,19.93
2023-05-10T06:43:53.096Z,20.08
2023-05-10T06:46:21.555Z,19.96
2023-05-10T06:48:49.556Z,20.08
2023-05-10T06:51:17.786Z,20.12
2023-05-10T06:53:45.739Z,20.13
2023-05-10T06:56:13.994Z,20.10
2023-05-10T06:58:42.645Z,20.18
2023-05-10T07:01:11.524Z,20.30
2023-05-10T07:03:39.490Z,20.22
2023-05-10T07:06:15.634Z,20.14
2023-05-10T07:08:50.192Z,20.21
2023-05-10T07:11:18.601Z,20.24
2023-05-10T07:13:48.487Z,20.19
2023-05-10T07:16:17.352Z,20.18
2023-05-10T07:18:45.279Z,20.12
2023-05-10T07:21:13.576Z,20.16
2023-05-10T07:23:42.948Z,20.23
2023-05-10T07:26:13.855Z,20.29
2023-05-10T07:28:41.950Z,20.42
2023-05-10T07:31:10.513Z,20.35
2023-05-10T07:33:39.694Z,20.27
2023-05-10T07:36:08.474Z,20.13
2023-05-10T07:38:37.552Z,20.28
2023-05-10T07:41:07.434Z,20.36
2023-05-10T07:43:35.475Z,20.43
2023-05-10T07:46:04.005Z,20.44
2023-05-10T07:48:32.693Z,20.54
2023-05-10T07:51:01.542Z,20.37
2023-05-10T07:53:29.594Z,20.48
2023-05-10T07:56:00.960Z,20.57
2023-05-10T07:58:30.149Z,20.62
2023-05-10T08:00:59.763Z,20.63
2023-05-10T08:03:27.823Z,20.57
2023-05-10T08:05:56.298Z,20.58
2023-05-10T08:08:25.425Z,20.67
2023-05-10T08:10:53.667Z,20.75
2023-05-10T08:13:22.488Z,20.80
2023-05-10T08:15:54.386Z,20.82
2023-05-10T08:18:26.384Z,20.87
2023-05-10T08:20:54.747Z,20.89
2023-05-10T08:23:22.552Z,20.90
2023-05-10T08:25:50.837Z,20.93
2023-05-10T08:28:19.703Z,21.00
2023-05-10T08:30:47.952Z,20.92
2023-05-10T08:33:15.949Z,21.03
2023-05-10T08:35:44.307Z,21.01
2023-05-10T08:38:12.224Z,20.97
2023-05-10T08:40:43.670Z,21.15
2023-05-10T08:43:13.987Z,21.17
2023-05-10T08:45:46.667Z,21.22
2023-05-10T08:48:17.600Z,21.27
2023-05-10T08:50:48.048Z,21.27
2023-05-10T08:53:18.022Z,21.21
2023-05-10T08:55:48.451Z,21.31
2023-05-10T08:58:16.671Z,21.43
2023-05-10T09:00:44.993Z,21.44
2023-05-10T09:03:14.133Z,21.46
2023-05-10T09:05:43.565Z,21.52
2023-05-10T09:08:14.281Z,21.54
2023-05-10T09:10:44.624Z,21.52
2023-05-10T09:13:14.926Z,21.45
2023-05-10T09:15:45.620Z,21.66
2023-05-10T09:18:14.791Z,21.70
2023-05-10T09:20:44.127Z,21.75
2023-05-10T09:23:12.081Z,21.67
2023-05-10T09:25:43.144Z,21.73
2023-05-10T09:28:12.315Z,21.90
2023-05-10T09:30:44.289Z,21.89
2023-05-10T09:33:12.888Z,21.88
2023-05-10T09:35:41.528Z,21.88
2023-05-10T09:38:09.682Z,22.00
2023-05-10T09:40:38.511Z,21.99
2023-05-10T09:43:12.164Z,22.01
2023-05-10T09:45:44.577Z,21.94
2023-05-10T09:48:14.249Z,22.02
2023-05-10T09:50:43.442Z,22.09
2023-05-10T09:53:18.926Z,22.18
2023-05-10T09:55:50.440Z,22.24
2023-05-10T09:58:18.585Z,22.29
2023-05-10T10:00:53.448Z,22.27
2023-05-10T10:03:22.588Z,22.33
2023-05-10T10:05:50.984Z,22.43
2023-05-10T10:08:19.149Z,22.47
2023-05-10T10:10:48.385Z,22.55
2023-05-10T10:13:17.612Z,22.56
2023-05-10T10:15:52.425Z,22.70
2023-05-10T10:18:24.836Z,22.73
2023-05-10T10:20:55.503Z,22.85
2023-05-10T10:23:23.945Z,22.93
2023-05-10T10:25:57.779Z,22.80
2023-05-10T10:28:53.245Z,22.94
2023-05-10T10:31:52.025Z,23.20
2023-05-10T10:34:31.362Z,23.33
2023-05-10T10:37:06.110Z,23.33
2023-05-10T10:39:37.924Z,23.45
2023-05-10T10:42:08.106Z,23.54
2023-05-10T10:44:40.102Z,23.67
2023-05-10T10:47:24.548Z,23.67
2023-05-10T10:50:03.572Z,23.94
2023-05-10T10:52:36.691Z,24.12
2023-05-10T10:55:24.468Z,24.08
2023-05-10T10:58:02.311Z,23.98
2023-05-10T11:00:32.353Z,24.27
2023-05-10T11:03:10.053Z,24.21
2023-05-10T11:05:41.669Z,24.38
2023-05-10T11:08:18.148Z,24.27
2023-05-10T11:10:53.385Z,24.31
2023-05-10T11:13:48.554Z,24.13
2023-05-10T11:16:23.221Z,23.82
2023-05-10T11:19:08.247Z,23.59
2023-05-10T11:21:53.126Z,23.75
2023-05-10T11:24:24.393Z,23.96
2023-05-10T11:26:53.218Z,24.07
2023-05-10T11:29:21.770Z,24.02
2023-05-10T11:31:50.853Z,24.05
2023-05-10T11:34:28.116Z,24.10
2023-05-10T11:36:56.905Z,24.14
2023-05-10T11:39:30.126Z,23.99
2023-05-10T11:41:59.089Z,23.88
2023-05-10T11:44:32.757Z,23.88
2023-05-10T11:47:02.145Z,23.88
2023-05-10T11:49:31.087Z,23.86
2023-05-10T11:52:09.797Z,23.89
2023-05-10T11:54:38.097Z,24.09
2023-05-10T11:57:06.346Z,24.10
2023-05-10T11:59:34.623Z,24.30
2023-05-10T12:02:02.691Z,24.39
2023-05-10T12:04:31.616Z,24.44
2023-05-10T12:07:00.139Z,24.61
2023-05-10T12:09:42.512Z,24.53
2023-05-10T12:12:16.986Z,24.60
2023-05-10T12:14:45.286Z,24.67
2023-05-10T12:17:14.496Z,24.64
2023-05-10T12:19:42.712Z,24.57
2023-05-10T12:22:10.827Z,24.52
2023-05-10T12:24:42.014Z,24.40
2023-05-10T12:27:10.139Z,24.42
2023-05-10T12:29:45.735Z,24.43
2023-05-10T12:32:13.756Z,24.39
2023-05-10T12:34:42.508Z,24.39
2023-05-10T12:37:10.351Z,24.31
2023-05-10T12:39:44.572Z,24.40
2023-05-10T12:42:13.082Z,24.21
2023-05-10T12:44:41.308Z,24.12
2023-05-10T12:47:09.195Z,23.96
2023-05-10T12:49:37.387Z,24.04
2023-05-10T12:52:05.213Z,23.94
2023-05-10T12:54:33.557Z,23.94
2023-05-10T12:57:01.459Z,24.02
2023-05-10T12:59:29.612Z,23.87
2023-05-10T13:01:58.794Z,23.99
2023-05-10T13:04:27.063Z,23.94
2023-05-10T13:06:57.329Z,23.79
2023-05-10T13:09:26.448Z,23.67
2023-05-10T13:11:56.981Z,23.60
2023-05-10T13:14:26.163Z,23.50
2023-05-10T13:16:55.011Z,23.49
2023-05-10T13:19:24.124Z,23.54
2023-05-10T13:21:52.067Z,23.51
2023-05-10T13:24:20.419Z,23.43
2023-05-10T13:26:48.233Z,23.44
2023-05-10T13:29:19.266Z,23.43
2023-05-10T13:31:47.213Z,23.47
2023-05-10T13:34:15.465Z,23.38
2023-05-10T13:36:43.317Z,23.34
2023-05-10T13:39:12.066Z,23.44
2023-05-10T13:41:40.196Z,23.62
2023-05-10T13:44:08.683Z,23.68
2023-05-10T13:46:36.665Z,23.72
2023-05-10T13:49:05.033Z,23.73
2023-05-10T13:51:33.005Z,23.65
2023-05-10T13:54:01.267Z,23.50
2023-05-10T13:56:29.437Z,23.51
2023-05-10T13:58:58.516Z,23.41
2023-05-10T14:01:26.290Z,23.31
2023-05-10T14:03:55.868Z,23.28
2023-05-10T14:06:24.174Z,23.33
2023-05-10T14:08:52.286Z,23.27
2023-05-10T14:11:20.046Z,23.21
2023-05-10T14:13:48.385Z,23.28
2023-05-10T14:16:18.032Z,23.21
2023-05-10T14:18:46.246Z,23.27
2023-05-10T14:21:14.280Z,23.25
2023-05-10T14:23:42.673Z,23.16
2023-05-10T14:26:10.545Z,23.12
2023-05-10T14:28:39.105Z,23.08
2023-05-10T14:31:07.387Z,23.02
2023-05-10T14:33:35.568Z,22.95
2023-05-10T14:36:05.317Z,22.90
2023-05-10T14:38:34.716Z,22.83
2023-05-10T14:41:02.587Z,22.68
2023-05-10T14:43:31.740Z,22.75
2023-05-10T14:45:59.733Z,22.73
2023-05-10T14:48:28.120Z,22.62
2023-05-10T14:50:56.125Z,22.67
2023-05-10T14:53:25.081Z,22.59
2023-05-10T14:55:54.028Z,22.57
2023-05-10T14:58:22.669Z,22.49
2023-05-10T15:00:50.658Z,22.51
2023-05-10T15:03:19.415Z,22.37
2023-05-10T15:05:47.943Z,22.34
2023-05-10T15:08:17.604Z,22.29
2023-05-10T15:10:45.368Z,22.23
2023-05-10T15:13:13.656Z,22.25
2023-05-10T15:15:41.497Z,22.20
2023-05-10T15:18:13.128Z,22.13
2023-05-10T15:20:42.072Z,22.13
2023-05-10T15:23:09.888Z,22.06
2023-05-10T15:25:39.301Z,22.00
2023-05-10T15:28:07.359Z,21.95
2023-05-10T15:30:35.483Z,21.95
2023-05-10T15:33:05.043Z,21.94
2023-05-10T15:35:34.764Z,21.91
2023-05-10T15:38:03.205Z,21.88
2023-05-10T15:40:31.406Z,21.85
2023-05-10T15:42:59.239Z,21.86
2023-05-10T15:45:28.439Z,21.80
2023-05-10T15:47:56.503Z,21.81
2023-05-10T15:50:24.743Z,21.77
2023-05-10T15:52:52.781Z,21.69
2023-05-10T15:55:21.090Z,21.73
2023-05-10T15:57:49.295Z,21.69
2023-05-10T16:00:18.134Z,21.65
2023-05-10T16:02:46.090Z,21.62
2023-05-10T16:05:16.170Z,21.59
2023-05-10T16:07:44.426Z,21.39
2023-05-10T16:10:14.896Z,21.17
2023-05-10T16:12:43.383Z,21.21
2023-05-10T16:15:11.917Z,21.13
2023-05-10T16:17:39.922Z,21.10
2023-05-10T16:20:08.730Z,21.13
2023-05-10T16:22:37.736Z,21.09
2023-05-10T16:25:08.185Z,21.07
2023-05-10T16:27:36.836Z,20.96
2023-05-10T16:30:06.590Z,20.91
2023-05-10T16:32:35.573Z,20.79
2023-05-10T16:35:03.902Z,20.67
2023-05-10T16:37:32.465Z,20.47
2023-05-10T16:40:01.192Z,20.37
2023-05-10T16:42:31.575Z,20.29
2023-05-10T16:45:07.552Z,20.20
2023-05-10T16:47:40.909Z,20.14
2023-05-10T16:50:10.526Z,20.10
2023-05-10T16:52:38.758Z,19.64
2023-05-10T16:55:07.933Z,19.62
2023-05-10T16:57:35.899Z,19.70
2023-05-10T17:00:12.228Z,19.52
2023-05-10T17:02:44.439Z,19.56
2023-05-10T17:05:14.438Z,19.52
2023-05-10T17:07:44.604Z,19.61
2023-05-10T17:10:13.290Z,19.50
2023-05-10T17:12:41.409Z,19.57
2023-05-10T17:15:10.597Z,19.54
2023-05-10T17:17:38.822Z,19.36
2023-05-10T17:20:07.922Z,19.29
2023-05-10T17:22:38.066Z,19.25
2023-05-10T17:25:07.169Z,18.98
2023-05-10T17:27:35.039Z,18.91
2023-05-10T17:30:03.574Z,18.67
2023-05-10T17:32:33.082Z,18.60
2023-05-10T17:35:01.376Z,18.46
2023-05-10T17:37:33.346Z,18.51
2023-05-10T17:40:04.298Z,18.50
2023-05-10T17:42:35.053Z,18.44
2023-05-10T17:45:04.076Z,18.48
2023-05-10T17:47:33.175Z,18.50
2023-05-10T17:50:02.117Z,18.54
2023-05-10T17:52:33.649Z,18.50
2023-05-10T17:55:02.983Z,18.34
2023-05-10T17:57:32.127Z,18.30
2023-05-10T18:00:01.276Z,18.35
2023-05-10T18:02:37.033Z,18.41
2023-05-10T18:05:07.424Z,18.38
2023-05-10T18:07:36.941Z,18.35
2023-05-10T18:10:05.660Z,17.88
2023-05-10T18:12:33.694Z,18.00
2023-05-10T18:15:04.329Z,17.86
2023-05-10T18:17:35.269Z,17.96
2023-05-10T18:20:06.463Z,17.98
2023-05-10T18:22:35.010Z,17.80
2023-05-10T18:25:03.496Z,17.79
2023-05-10T18:27:33.490Z,17.52
2023-05-10T18:30:01.896Z,17.41
2023-05-10T18:32:33.770Z,17.36
2023-05-10T18:35:02.310Z,17.39
2023-05-10T18:37:34.707Z,17.40
2023-05-10T18:40:05.236Z,17.13
2023-05-10T18:42:33.564Z,17.02
2023-05-10T18:45:06.122Z,17.35
2023-05-10T18:47:35.084Z,17.27
2023-05-10T18:50:05.397Z,17.31
2023-05-10T18:52:37.327Z,17.38
2023-05-10T18:55:09.162Z,17.17
2023-05-10T18:57:41.817Z,17.25
2023-05-10T19:00:12.720Z,17.19
2023-05-10T19:02:41.642Z,17.25
2023-05-10T19:05:11.667Z,17.15
2023-05-10T19:07:40.915Z,17.17
2023-05-10T19:10:09.491Z,17.09
2023-05-10T19:12:37.737Z,17.19
2023-05-10T19:15:07.279Z,17.12
2023-05-10T19:17:37.239Z,17.20
2023-05-10T19:20:09.069Z,17.07
2023-05-10T19:22:54.078Z,17.20
2023-05-10T19:25:33.817Z,17.14
2023-05-10T19:28:05.372Z,17.13
2023-05-10T19:30:34.787Z,17.01
2023-05-10T19:33:05.694Z,16.99
2023-05-10T19:35:34.190Z,17.09
2023-05-10T19:38:03.619Z,17.10
2023-05-10T19:40:33.015Z,17.05
2023-05-10T19:43:01.692Z,17.10
2023-05-10T19:45:31.690Z,16.91
2023-05-10T19:47:59.644Z,17.03
2023-05-10T19:50:27.846Z,17.05
2023-05-10T19:52:58.483Z,17.10
2023-05-10T19:55:29.937Z,17.11
2023-05-10T19:58:00.859Z,17.15
2023-05-10T20:00:29.363Z,16.99
2023-05-10T20:02:57.966Z,17.00
2023-05-10T20:05:26.310Z,17.12
2023-05-10T20:07:54.882Z,17.05
2023-05-10T20:10:27.244Z,17.08
2023-05-10T20:12:55.276Z,17.07
2023-05-10T20:15:23.943Z,17.10
2023-05-10T20:17:53.587Z,17.06
2023-05-10T20:20:23.890Z,17.18
2023-05-10T20:22:51.953Z,17.19
2023-05-10T20:25:20.319Z,17.16
2023-05-10T20:27:51.046Z,17.16
2023-05-10T20:30:20.080Z,17.11
2023-05-10T20:32:49.826Z,17.05
2023-05-10T20:35:18.169Z,16.96
2023-05-10T20:37:48.758Z,16.51
2023-05-10T20:40:18.074Z,16.79
2023-05-10T20:42:48.034Z,16.68
2023-05-10T20:45:16.469Z,16.83
2023-05-10T20:47:44.849Z,16.56
2023-05-10T20:50:13.237Z,16.51
2023-05-10T20:52:41.213Z,16.74
2023-05-10T20:55:10.083Z,16.56
2023-05-10T20:57:37.984Z,16.59
2023-05-10T21:00:07.155Z,16.70
2023-05-10T21:02:35.682Z,16.60
2023-05-10T21:05:05.429Z,16.55
2023-05-10T21:07:33.468Z,16.49
2023-05-10T21:10:02.218Z,16.45
2023-05-10T21:12:32.470Z,16.54
2023-05-10T21:15:03.277Z,16.37
2023-05-10T21:17:32.753Z,16.16
2023-05-10T21:20:01.449Z,16.37
2023-05-10T21:22:30.120Z,16.44
2023-05-10T21:24:58.555Z,16.45
2023-05-10T21:27:27.554Z,16.16
2023-05-10T21:30:00.293Z,16.31
2023-05-10T21:32:28.291Z,16.25
2023-05-10T21:34:57.045Z,16.06
2023-05-10T21:37:25.017Z,16.18
2023-05-10T21:39:53.280Z,16.10
2023-05-10T21:42:23.713Z,16.14
2023-05-10T21:44:54.356Z,16.18
2023-05-10T21:47:22.709Z,16.12
2023-05-10T21:49:51.322Z,16.26
2023-05-10T21:52:19.617Z,16.29
2023-05-10T21:54:48.890Z,16.14
2023-05-10T21:57:17.669Z,16.02
2023-05-10T21:59:48.824Z,16.18
2023-05-10T22:02:17.941Z,16.42
2023-05-10T22:04:46.249Z,16.46
2023-05-10T22:07:15.598Z,16.46
2023-05-10T22:09:44.504Z,16.56
2023-05-10T22:12:13.158Z,16.54
2023-05-10T22:14:41.811Z,16.54
2023-05-10T22:17:09.904Z,16.61
2023-05-10T22:19:38.409Z,16.58
2023-05-10T22:22:06.566Z,16.59
2023-05-10T22:24:35.423Z,16.53
2023-05-10T22:27:05.071Z,16.59
2023-05-10T22:29:33.551Z,16.60
2023-05-10T22:32:05.851Z,16.59
2023-05-10T22:34:35.746Z,16.54
2023-05-10T22:37:04.270Z,16.66
2023-05-10T22:39:32.626Z,16.61
2023-05-10T22:42:00.948Z,16.36
2023-05-10T22:44:29.208Z,16.32
2023-05-10T22:46:57.365Z,16.36
2023-05-10T22:49:26.031Z,16.49
2023-05-10T22:51:54.325Z,16.37
2023-05-10T22:54:22.656Z,16.50
2023-05-10T22:56:51.424Z,16.38
2023-05-10T22:59:20.955Z,16.46
2023-05-10T23:01:49.297Z,16.41
2023-05-10T23:04:18.551Z,16.50
2023-05-10T23:06:47.153Z,16.42
2023-05-10T23:09:15.724Z,16.52
2023-05-10T23:16:21.341Z,16.54
2023-05-10T23:18:52.562Z,16.57
2023-05-10T23:21:32.225Z,16.62
2023-05-10T23:24:13.040Z,16.62
2023-05-10T23:26:47.227Z,16.58
2023-05-10T23:29:20.265Z,16.60
2023-05-10T23:31:52.445Z,16.54
2023-05-10T23:34:22.130Z,16.56
2023-05-10T23:36:52.404Z,16.33
2023-05-10T23:39:21.382Z,16.25
2023-05-10T23:42:10.262Z,16.29
2023-05-10T23:44:39.104Z,16.41
2023-05-10T23:47:28.733Z,16.22
2023-05-10T23:49:58.866Z,16.04
2023-05-10T23:52:35.512Z,15.84
2023-05-10T23:55:09.167Z,16.00
2023-05-10T23:57:45.053Z,15.92
